createdAt,value
2024-01-09T00:00:41.468Z,-3.43
2024-01-09T00:03:09.190Z,-3.40
2024-01-09T00:05:38.444Z,-3.40
2024-01-09T00:08:06.641Z,-3.47
2024-01-09T00:10:34.216Z,-3.46
2024-01-09T00:13:01.783Z,-3.56
2024-01-09T00:15:29.483Z,-3.49
2024-01-09T00:17:57.240Z,-3.53
2024-01-09T00:20:24.901Z,-3.54
2024-01-09T00:22:54.184Z,-3.51
2024-01-09T00:25:21.774Z,-3.52
2024-01-09T00:27:49.356Z,-3.47
2024-01-09T00:30:17.131Z,-3.49
2024-01-09T00:32:48.504Z,-3.57
2024-01-09T00:35:16.512Z,-3.51
2024-01-09T00:37:44.161Z,-3.70
2024-01-09T00:40:13.221Z,-3.64
2024-01-09T00:42:40.858Z,-3.74
2024-01-09T00:45:08.979Z,-3.69
2024-01-09T00:47:36.767Z,-3.69
2024-01-09T00:50:04.737Z,-3.72
2024-01-09T00:52:32.392Z,-3.65
2024-01-09T00:55:00.003Z,-3.66
2024-01-09T00:57:29.007Z,-3.70
2024-01-09T00:59:56.712Z,-3.76
2024-01-09T01:02:24.385Z,-3.72
2024-01-09T01:04:52.076Z,-3.78
2024-01-09T01:07:19.745Z,-3.78
2024-01-09T01:09:47.368Z,-3.81
2024-01-09T01:12:14.960Z,-3.72
2024-01-09T01:14:43.894Z,-3.79
2024-01-09T01:17:11.468Z,-3.85
2024-01-09T01:19:39.184Z,-3.82
2024-01-09T01:22:06.776Z,-3.84
2024-01-09T01:24:34.423Z,-3.83
2024-01-09T01:27:02.031Z,-3.82
2024-01-09T01:29:29.633Z,-3.73
2024-01-09T01:31:58.696Z,-3.75
2024-01-09T01:34:26.320Z,-3.82
2024-01-09T01:36:53.909Z,-3.89
2024-01-09T01:39:22.757Z,-3.88
2024-01-09T01:41:50.414Z,-3.82
2024-01-09T01:44:19.233Z,-3.86
2024-01-09T01:46:49.080Z,-3.81
2024-01-09T01:49:19.223Z,-3.88
2024-01-09T01:51:47.676Z,-3.89
2024-01-09T01:54:15.901Z,-3.90
2024-01-09T01:56:43.817Z,-3.97
2024-01-09T01:59:12.107Z,-4.00
2024-01-09T02:01:40.584Z,-3.93
2024-01-09T02:04:09.453Z,-3.99
2024-01-09T02:06:38.546Z,-4.01
2024-01-09T02:09:06.348Z,-3.93
2024-01-09T02:11:34.286Z,-4.06
2024-01-09T02:14:01.911Z,-4.03
2024-01-09T02:16:29.566Z,-3.99
2024-01-09T02:18:57.216Z,-3.95
2024-01-09T02:21:24.845Z,-3.98
2024-01-09T02:23:53.839Z,-4.02
2024-01-09T02:26:39.791Z,-4.02
2024-01-09T02:29:11.200Z,-4.09
2024-01-09T02:31:40.199Z,-4.08
2024-01-09T02:34:11.200Z,-4.06
2024-01-09T02:36:39.051Z,-4.10
2024-01-09T02:39:06.655Z,-4.08
2024-01-09T02:41:36.347Z,-4.06
2024-01-09T02:44:04.000Z,-4.07
2024-01-09T02:46:31.783Z,-4.11
2024-01-09T02:49:00.935Z,-4.11
2024-01-09T02:51:28.555Z,-4.12
2024-01-09T02:53:56.209Z,-4.11
2024-01-09T02:56:23.911Z,-4.20
2024-01-09T02:58:51.566Z,-4.15
2024-01-09T03:01:19.242Z,-4.15
2024-01-09T03:03:46.909Z,-4.19
2024-01-09T03:06:15.976Z,-4.21
2024-01-09T03:08:43.602Z,-4.17
2024-01-09T03:11:11.272Z,-4.17
2024-01-09T03:13:40.082Z,-4.17
2024-01-09T03:16:11.441Z,-4.22
2024-01-09T03:18:39.201Z,-4.26
2024-01-09T03:21:06.914Z,-4.35
2024-01-09T03:23:36.159Z,-4.26
2024-01-09T03:26:04.372Z,-4.25
2024-01-09T03:28:31.951Z,-4.35
2024-01-09T03:30:59.584Z,-4.38
2024-01-09T03:33:27.256Z,-4.32
2024-01-09T03:35:54.908Z,-4.28
2024-01-09T03:38:22.572Z,-4.39
2024-01-09T03:40:51.677Z,-4.34
2024-01-09T03:43:19.274Z,-4.41
2024-01-09T03:45:46.907Z,-4.41
2024-01-09T03:48:14.575Z,-4.54
2024-01-09T03:50:42.181Z,-4.46
2024-01-09T03:53:09.804Z,-4.41
2024-01-09T03:55:37.422Z,-4.46
2024-01-09T03:58:06.499Z,-4.52
2024-01-09T04:00:34.146Z,-4.50
2024-01-09T04:03:01.826Z,-4.57
2024-01-09T04:05:29.497Z,-4.49
2024-01-09T04:07:57.123Z,-4.50
2024-01-09T04:10:24.768Z,-4.57
2024-01-09T04:12:52.564Z,-4.56
2024-01-09T04:15:21.693Z,-4.60
2024-01-09T04:17:49.388Z,-4.61
2024-01-09T04:20:17.199Z,-4.56
2024-01-09T04:22:44.870Z,-4.55
2024-01-09T04:25:14.157Z,-4.57
2024-01-09T04:27:41.822Z,-4.53
2024-01-09T04:30:09.904Z,-4.56
2024-01-09T04:32:39.116Z,-4.56
2024-01-09T04:35:06.897Z,-4.57
2024-01-09T04:37:34.580Z,-4.62
2024-01-09T04:40:02.278Z,-4.61
2024-01-09T04:42:29.933Z,-4.64
2024-01-09T04:44:58.158Z,-4.71
2024-01-09T04:47:25.765Z,-4.66
2024-01-09T04:49:54.919Z,-4.73
2024-01-09T04:52:22.542Z,-4.74
2024-01-09T04:54:50.134Z,-4.77
2024-01-09T04:57:18.825Z,-4.80
2024-01-09T04:59:46.545Z,-4.78
2024-01-09T05:02:14.352Z,-4.76
2024-01-09T05:04:42.010Z,-4.85
2024-01-09T05:07:10.981Z,-4.81
2024-01-09T05:09:40.300Z,-4.78
2024-01-09T05:12:08.439Z,-4.85
2024-01-09T05:14:36.076Z,-4.82
2024-01-09T05:17:03.833Z,-4.86
2024-01-09T05:19:31.587Z,-4.85
2024-01-09T05:21:59.259Z,-4.83
2024-01-09T05:24:28.152Z,-4.86
2024-01-09T05:26:55.841Z,-4.93
2024-01-09T05:29:23.518Z,-4.88
2024-01-09T05:31:51.195Z,-4.91
2024-01-09T05:34:18.822Z,-4.95
2024-01-09T05:36:46.428Z,-4.92
2024-01-09T05:39:14.126Z,-5.00
2024-01-09T05:41:43.125Z,-4.97
2024-01-09T05:44:10.776Z,-4.94
2024-01-09T05:46:38.404Z,-4.97
2024-01-09T05:49:06.162Z,-5.01
2024-01-09T05:51:34.348Z,-5.02
2024-01-09T05:54:02.090Z,-5.03
2024-01-09T05:56:29.799Z,-5.02
2024-01-09T05:58:58.840Z,-5.14
2024-01-09T06:01:26.500Z,-5.01
2024-01-09T06:03:54.160Z,-5.11
2024-01-09T06:06:21.811Z,-5.10
2024-01-09T06:08:50.062Z,-5.11
2024-01-09T06:11:18.154Z,-5.13
2024-01-09T06:13:45.806Z,-5.13
2024-01-09T06:16:14.804Z,-5.17
2024-01-09T06:18:42.593Z,-5.09
2024-01-09T06:21:10.274Z,-5.17
2024-01-09T06:23:37.899Z,-5.14
2024-01-09T06:26:05.705Z,-5.20
2024-01-09T06:28:34.643Z,-5.16
2024-01-09T06:31:02.789Z,-5.22
2024-01-09T06:33:31.887Z,-5.25
2024-01-09T06:35:59.567Z,-5.30
2024-01-09T06:38:27.196Z,-5.24
2024-01-09T06:40:54.826Z,-5.31
2024-01-09T06:43:22.357Z,-5.35
2024-01-09T06:45:49.926Z,-5.36
2024-01-09T06:48:17.693Z,-5.28
2024-01-09T06:50:46.884Z,-5.27
2024-01-09T06:53:14.602Z,-5.29
2024-01-09T06:55:42.582Z,-5.38
2024-01-09T06:58:12.917Z,-5.35
2024-01-09T07:00:40.633Z,-5.37
2024-01-09T07:03:08.446Z,-5.39
2024-01-09T07:05:36.205Z,-5.36
2024-01-09T07:08:05.580Z,-5.33
2024-01-09T07:10:33.424Z,-5.31
2024-01-09T07:13:01.073Z,-5.40
2024-01-09T07:15:28.041Z,-5.37
2024-01-09T07:17:55.990Z,-5.32
2024-01-09T07:20:23.784Z,-5.34
2024-01-09T07:22:58.914Z,-5.40
2024-01-09T07:25:34.460Z,-5.47
2024-01-09T07:28:02.084Z,-5.43
2024-01-09T07:30:29.773Z,-5.44
2024-01-09T07:32:57.552Z,-5.39
2024-01-09T07:35:25.313Z,-5.47
2024-01-09T07:37:52.984Z,-5.47
2024-01-09T07:40:20.775Z,-5.47
2024-01-09T07:42:57.261Z,-5.54
2024-01-09T07:45:30.543Z,-5.47
2024-01-09T07:47:58.716Z,-5.52
2024-01-09T07:50:26.484Z,-5.45
2024-01-09T07:52:54.098Z,-5.48
2024-01-09T07:55:21.766Z,-5.43
2024-01-09T07:57:50.793Z,-5.47
2024-01-09T08:00:18.754Z,-5.51
2024-01-09T08:02:46.429Z,-5.48
2024-01-09T08:05:14.162Z,-5.46
2024-01-09T08:07:41.876Z,-5.45
2024-01-09T08:10:10.125Z,-5.38
2024-01-09T08:12:37.753Z,-5.44
2024-01-09T08:15:07.290Z,-5.46
2024-01-09T08:17:34.972Z,-5.41
2024-01-09T08:20:04.622Z,-5.39
2024-01-09T08:22:32.312Z,-5.43
2024-01-09T08:25:00.317Z,-5.34
2024-01-09T08:27:28.038Z,-5.34
2024-01-09T08:29:55.821Z,-5.34
2024-01-09T08:32:25.038Z,-5.36
2024-01-09T08:34:52.879Z,-5.33
2024-01-09T08:37:20.614Z,-5.32
2024-01-09T08:39:48.254Z,-5.24
2024-01-09T08:42:16.021Z,-5.16
2024-01-09T08:44:43.754Z,-5.18
2024-01-09T08:47:11.486Z,-5.19
2024-01-09T08:49:40.545Z,-5.22
2024-01-09T08:52:08.213Z,-5.17
2024-01-09T08:54:35.824Z,-5.13
2024-01-09T08:57:03.473Z,-5.11
2024-01-09T08:59:31.163Z,-5.06
2024-01-09T09:01:58.821Z,-5.11
2024-01-09T09:04:26.496Z,-5.10
2024-01-09T09:06:55.685Z,-5.09
2024-01-09T09:09:23.315Z,-5.02
2024-01-09T09:11:50.943Z,-5.03
2024-01-09T09:14:18.630Z,-4.91
2024-01-09T09:16:46.323Z,-4.88
2024-01-09T09:19:14.038Z,-4.85
2024-01-09T09:21:41.715Z,-4.86
2024-01-09T09:24:10.896Z,-4.81
2024-01-09T09:26:38.636Z,-4.90
2024-01-09T09:29:14.583Z,-4.79
2024-01-09T09:31:47.186Z,-4.87
2024-01-09T09:34:14.945Z,-4.76
2024-01-09T09:36:42.630Z,-4.77
2024-01-09T09:39:12.214Z,-4.66
2024-01-09T09:41:40.867Z,-4.63
2024-01-09T09:44:09.975Z,-4.64
2024-01-09T09:46:38.383Z,-4.53
2024-01-09T09:49:06.789Z,-4.50
2024-01-09T09:51:34.674Z,-4.53
2024-01-09T09:54:03.686Z,-4.56
2024-01-09T09:56:33.320Z,-4.57
2024-01-09T09:59:00.884Z,-4.52
2024-01-09T10:01:28.625Z,-4.48
2024-01-09T10:03:57.657Z,-4.44
2024-01-09T10:06:25.877Z,-4.32
2024-01-09T10:08:56.014Z,-4.25
2024-01-09T10:11:24.595Z,-4.20
2024-01-09T10:13:54.106Z,-4.22
2024-01-09T10:16:21.635Z,-4.21
2024-01-09T10:18:49.411Z,-4.21
2024-01-09T10:21:19.014Z,-4.15
2024-01-09T10:23:46.964Z,-4.08
2024-01-09T10:26:14.620Z,-4.04
2024-01-09T10:28:42.419Z,-4.05
2024-01-09T10:31:11.595Z,-4.01
2024-01-09T10:33:40.332Z,-3.99
2024-01-09T10:36:08.293Z,-3.90
2024-01-09T10:38:36.093Z,-3.90
2024-01-09T10:41:15.475Z,-3.90
2024-01-09T10:43:43.409Z,-3.82
2024-01-09T10:46:12.405Z,-3.74
2024-01-09T10:48:41.291Z,-3.38
2024-01-09T10:51:09.246Z,-2.49
2024-01-09T10:53:38.753Z,-1.39
2024-01-09T10:56:08.902Z,-1.15
2024-01-09T10:58:37.191Z,-1.25
2024-01-09T11:01:05.017Z,-1.50
2024-01-09T11:03:34.183Z,-1.81
2024-01-09T11:06:04.766Z,-2.43
2024-01-09T11:08:35.078Z,-2.31
2024-01-09T11:11:04.158Z,-2.37
2024-01-09T11:13:32.741Z,-2.50
2024-01-09T11:16:01.238Z,-2.67
2024-01-09T11:18:32.604Z,-2.71
2024-01-09T11:21:03.192Z,-2.74
2024-01-09T11:23:54.007Z,-2.77
2024-01-09T11:26:21.950Z,-2.78
2024-01-09T11:28:49.542Z,-2.73
2024-01-09T11:31:18.352Z,-2.72
2024-01-09T11:33:46.403Z,-2.76
2024-01-09T11:36:19.815Z,-2.68
2024-01-09T11:38:47.477Z,-2.57
2024-01-09T11:41:15.626Z,-2.56
2024-01-09T11:43:58.963Z,-2.49
2024-01-09T11:46:27.800Z,-2.52
2024-01-09T11:48:55.570Z,-2.49
2024-01-09T11:51:24.921Z,-2.57
2024-01-09T11:53:52.733Z,-2.48
2024-01-09T11:56:20.816Z,-2.50
2024-01-09T11:58:51.205Z,-2.53
2024-01-09T12:01:20.861Z,-2.57
2024-01-09T12:03:52.830Z,-2.52
2024-01-09T12:06:20.743Z,-2.41
2024-01-09T12:08:49.824Z,-2.37
2024-01-09T12:11:18.045Z,-2.28
2024-01-09T12:13:45.907Z,-2.27
2024-01-09T12:16:19.956Z,-2.24
2024-01-09T12:18:48.576Z,-2.19
2024-01-09T12:21:16.720Z,-2.25
2024-01-09T12:24:02.006Z,-2.29
2024-01-09T12:26:34.777Z,-2.21
2024-01-09T12:29:03.388Z,-2.19
2024-01-09T12:31:30.954Z,-2.16
2024-01-09T12:33:59.162Z,-2.14
2024-01-09T12:36:29.000Z,-2.10
2024-01-09T12:38:57.894Z,-2.12
2024-01-09T12:41:25.948Z,-2.05
2024-01-09T12:43:55.085Z,-2.02
2024-01-09T12:46:23.091Z,-2.02
2024-01-09T12:48:51.871Z,-1.96
2024-01-09T12:51:20.561Z,-1.99
2024-01-09T12:53:48.765Z,-1.95
2024-01-09T12:56:17.052Z,-1.93
2024-01-09T12:58:46.503Z,-1.90
2024-01-09T13:01:15.746Z,-1.86
2024-01-09T13:03:44.758Z,-1.82
2024-01-09T13:06:13.090Z,-1.87
2024-01-09T13:08:41.667Z,-1.76
2024-01-09T13:11:10.867Z,-1.82
2024-01-09T13:13:39.449Z,-1.74
2024-01-09T13:16:07.965Z,-1.75
2024-01-09T13:18:37.256Z,-1.72
2024-01-09T13:21:05.358Z,-1.74
2024-01-09T13:26:03.984Z,-1.66
2024-01-09T13:28:31.816Z,-1.59
2024-01-09T13:30:59.934Z,-1.62
2024-01-09T13:33:28.659Z,-1.67
2024-01-09T13:35:57.838Z,-1.61
2024-01-09T13:38:25.811Z,-1.61
2024-01-09T13:40:53.461Z,-1.52
2024-01-09T13:43:21.189Z,-1.52
2024-01-09T13:45:51.528Z,-1.52
2024-01-09T13:48:19.582Z,-1.47
2024-01-09T13:51:49.231Z,-1.47
2024-01-09T13:53:37.868Z,-1.55
2024-01-09T13:56:06.543Z,-1.50
2024-01-09T13:58:36.170Z,-1.47
2024-01-09T14:01:04.038Z,-1.49
2024-01-09T14:03:31.755Z,-1.49
2024-01-09T14:05:59.837Z,-1.49
2024-01-09T14:08:27.676Z,-1.43
2024-01-09T14:10:56.823Z,-1.45
2024-01-09T14:13:24.430Z,-1.41
2024-01-09T14:15:53.264Z,-1.35
2024-01-09T14:18:21.565Z,-1.48
2024-01-09T14:20:49.230Z,-1.47
2024-01-09T14:23:16.908Z,-1.46
2024-01-09T14:25:44.673Z,-1.48
2024-01-09T14:28:13.633Z,-1.56
2024-01-09T14:30:41.221Z,-1.49
2024-01-09T14:33:08.903Z,-1.47
2024-01-09T14:35:38.344Z,-1.51
2024-01-09T14:38:06.279Z,-1.58
2024-01-09T14:40:33.944Z,-1.61
2024-01-09T14:43:02.797Z,-1.57
2024-01-09T14:45:31.766Z,-1.56
2024-01-09T14:47:59.600Z,-1.51
2024-01-09T14:50:28.204Z,-1.55
2024-01-09T14:52:55.977Z,-1.63
2024-01-09T14:55:25.086Z,-1.62
2024-01-09T14:57:53.418Z,-1.63
2024-01-09T15:00:21.350Z,-1.64
2024-01-09T15:02:52.588Z,-1.67
2024-01-09T15:05:21.320Z,-1.74
2024-01-09T15:07:49.069Z,-1.76
2024-01-09T15:10:16.768Z,-1.75
2024-01-09T15:12:44.362Z,-1.71
2024-01-09T15:15:12.715Z,-1.72
2024-01-09T15:17:41.542Z,-1.77
2024-01-09T15:20:12.572Z,-1.84
2024-01-09T15:22:40.254Z,-1.82
2024-01-09T15:25:10.069Z,-1.83
2024-01-09T15:27:37.653Z,-1.93
2024-01-09T15:30:05.690Z,-1.95
2024-01-09T15:32:34.757Z,-1.93
2024-01-09T15:35:04.842Z,-1.94
2024-01-09T15:37:34.975Z,-2.06
2024-01-09T15:40:02.644Z,-2.06
2024-01-09T15:42:30.249Z,-2.06
2024-01-09T15:44:57.828Z,-2.15
2024-01-09T15:47:25.399Z,-2.17
2024-01-09T15:49:54.614Z,-2.18
2024-01-09T15:52:22.259Z,-2.18
2024-01-09T15:54:51.646Z,-2.21
2024-01-09T15:57:19.462Z,-2.25
2024-01-09T15:59:47.037Z,-2.31
2024-01-09T16:02:15.139Z,-2.27
2024-01-09T16:04:43.610Z,-2.30
2024-01-09T16:07:12.690Z,-2.29
2024-01-09T16:09:40.288Z,-2.33
2024-01-09T16:12:09.347Z,-2.34
2024-01-09T16:14:38.041Z,-2.41
2024-01-09T16:17:05.970Z,-2.40
2024-01-09T16:19:34.097Z,-2.42
2024-01-09T16:22:01.723Z,-2.49
2024-01-09T16:24:28.323Z,-2.49
2024-01-09T16:26:56.348Z,-2.47
2024-01-09T16:29:25.718Z,-2.48
2024-01-09T16:31:53.470Z,-2.47
2024-01-09T16:34:21.253Z,-2.56
2024-01-09T16:36:48.939Z,-2.63
2024-01-09T16:39:16.642Z,-2.69
2024-01-09T16:41:44.654Z,-2.67
2024-01-09T16:44:12.548Z,-2.68
2024-01-09T16:46:42.645Z,-2.75
2024-01-09T16:49:10.812Z,-2.69
2024-01-09T16:51:39.012Z,-2.77
2024-01-09T16:54:06.754Z,-2.75
2024-01-09T16:56:35.217Z,-2.75
2024-01-09T16:59:02.935Z,-2.80
2024-01-09T17:01:31.047Z,-2.71
2024-01-09T17:04:00.157Z,-2.81
2024-01-09T17:06:27.694Z,-2.73
2024-01-09T17:08:55.317Z,-2.84
2024-01-09T17:11:24.244Z,-2.82
2024-01-09T17:13:52.553Z,-2.81
2024-01-09T17:16:21.408Z,-2.82
2024-01-09T17:18:49.051Z,-2.81
2024-01-09T17:21:18.045Z,-2.76
2024-01-09T17:23:46.480Z,-2.73
2024-01-09T17:26:17.829Z,-2.76
2024-01-09T17:28:45.549Z,-2.78
2024-01-09T17:31:13.191Z,-2.87
2024-01-09T17:33:41.630Z,-2.89
2024-01-09T17:36:09.580Z,-2.82
2024-01-09T17:38:38.474Z,-2.85
2024-01-09T17:41:07.316Z,-2.86
2024-01-09T17:43:35.175Z,-2.88
2024-01-09T17:46:05.698Z,-3.03
2024-01-09T17:48:35.499Z,-2.86
2024-01-09T17:51:03.746Z,-2.88
2024-01-09T17:53:31.362Z,-2.86
2024-01-09T17:56:02.606Z,-2.89
2024-01-09T17:58:30.311Z,-2.88
2024-01-09T18:00:58.534Z,-2.93
2024-01-09T18:03:27.470Z,-2.90
2024-01-09T18:05:56.392Z,-2.90
2024-01-09T18:08:24.609Z,-2.96
2024-01-09T18:10:52.278Z,-2.99
2024-01-09T18:13:21.310Z,-2.97
2024-01-09T18:15:48.895Z,-3.05
2024-01-09T18:18:18.181Z,-3.05
2024-01-09T18:20:47.319Z,-3.07
2024-01-09T18:23:15.113Z,-3.06
2024-01-09T18:25:42.970Z,-3.04
2024-01-09T18:28:11.071Z,-3.07
2024-01-09T18:30:42.055Z,-3.05
2024-01-09T18:33:10.329Z,-3.04
2024-01-09T18:35:38.166Z,-3.00
2024-01-09T18:38:05.918Z,-2.97
2024-01-09T18:40:33.530Z,-3.02
2024-01-09T18:43:01.144Z,-3.09
2024-01-09T18:45:28.773Z,-3.08
2024-01-09T18:47:57.715Z,-3.07
2024-01-09T18:50:25.800Z,-3.09
2024-01-09T18:52:54.438Z,-3.18
2024-01-09T18:55:22.189Z,-3.23
2024-01-09T18:57:49.759Z,-3.17
2024-01-09T19:00:17.679Z,-3.18
2024-01-09T19:02:45.377Z,-3.14
2024-01-09T19:05:14.496Z,-3.17
2024-01-09T19:07:43.411Z,-3.18
2024-01-09T19:10:12.720Z,-3.18
2024-01-09T19:12:40.682Z,-3.16
2024-01-09T19:15:08.747Z,-3.26
2024-01-09T19:17:36.521Z,-3.20
2024-01-09T19:20:04.439Z,-3.28
2024-01-09T19:22:34.594Z,-3.20
2024-01-09T19:25:04.715Z,-3.29
2024-01-09T19:27:34.103Z,-3.23
2024-01-09T19:30:02.001Z,-3.19
2024-01-09T19:32:30.115Z,-3.25
2024-01-09T19:34:57.815Z,-3.26
2024-01-09T19:37:25.378Z,-3.18
2024-01-09T19:39:54.718Z,-3.29
2024-01-09T19:42:24.033Z,-3.24
2024-01-09T19:44:54.836Z,-3.23
2024-01-09T19:47:22.814Z,-3.25
2024-01-09T19:49:50.559Z,-3.34
2024-01-09T19:52:18.241Z,-3.32
2024-01-09T19:54:45.801Z,-3.33
2024-01-09T19:57:14.872Z,-3.31
2024-01-09T19:59:43.690Z,-3.28
2024-01-09T20:02:11.645Z,-3.33
2024-01-09T20:04:41.017Z,-3.31
2024-01-09T20:07:08.724Z,-3.34
2024-01-09T20:09:36.389Z,-3.34
2024-01-09T20:12:05.148Z,-3.38
2024-01-09T20:14:34.166Z,-3.39
2024-01-09T20:17:01.960Z,-3.45
2024-01-09T20:19:30.198Z,-3.47
2024-01-09T20:21:57.789Z,-3.39
2024-01-09T20:24:25.397Z,-3.42
2024-01-09T20:26:53.500Z,-3.47
2024-01-09T20:29:21.146Z,-3.44
2024-01-09T20:31:50.093Z,-3.53
2024-01-09T20:34:17.753Z,-3.56
2024-01-09T20:36:45.473Z,-3.52
2024-01-09T20:39:17.562Z,-3.50
2024-01-09T20:41:45.470Z,-3.51
2024-01-09T20:44:16.996Z,-3.58
2024-01-09T20:46:45.477Z,-3.57
2024-01-09T20:49:14.665Z,-3.53
2024-01-09T20:51:43.962Z,-3.54
2024-01-09T20:54:11.941Z,-3.53
2024-01-09T20:56:40.855Z,-3.55
2024-01-09T20:59:08.743Z,-3.52
2024-01-09T21:01:39.000Z,-3.57
2024-01-09T21:04:11.803Z,-3.58
2024-01-09T21:06:45.861Z,-3.48
2024-01-09T21:09:13.708Z,-3.48
2024-01-09T21:11:41.346Z,-3.52
2024-01-09T21:14:09.236Z,-3.52
2024-01-09T21:16:37.040Z,-3.54
2024-01-09T21:19:04.791Z,-3.54
2024-01-09T21:21:33.910Z,-3.60
2024-01-09T21:24:03.526Z,-3.50
2024-01-09T21:26:31.188Z,-3.51
2024-01-09T21:28:58.908Z,-3.51
2024-01-09T21:31:26.616Z,-3.52
2024-01-09T21:33:54.468Z,-3.53
2024-01-09T21:36:22.131Z,-3.50
2024-01-09T21:38:49.694Z,-3.61
2024-01-09T21:41:18.776Z,-3.62
2024-01-09T21:43:46.468Z,-3.62
2024-01-09T21:46:14.502Z,-3.64
2024-01-09T21:48:42.235Z,-3.60
2024-01-09T21:51:10.000Z,-3.63
2024-01-09T21:53:37.598Z,-3.70
2024-01-09T21:56:05.445Z,-3.63
2024-01-09T21:58:34.916Z,-3.58
2024-01-09T22:01:02.585Z,-3.58
2024-01-09T22:03:30.186Z,-3.59
2024-01-09T22:05:58.375Z,-3.64
2024-01-09T22:08:26.035Z,-3.65
2024-01-09T22:10:53.709Z,-3.61
2024-01-09T22:13:21.321Z,-3.62
2024-01-09T22:15:52.462Z,-3.58
2024-01-09T22:18:21.205Z,-3.66
2024-01-09T22:20:48.822Z,-3.64
2024-01-09T22:23:16.473Z,-3.76
2024-01-09T22:25:44.283Z,-3.77
2024-01-09T22:28:12.967Z,-3.71
2024-01-09T22:30:41.715Z,-3.79
2024-01-09T22:33:11.982Z,-3.77
2024-01-09T22:35:41.939Z,-3.74
2024-01-09T22:38:09.740Z,-3.75
2024-01-09T22:40:37.492Z,-3.80
2024-01-09T22:43:05.281Z,-3.77
2024-01-09T22:45:32.984Z,-3.80
2024-01-09T22:48:00.693Z,-3.84
2024-01-09T22:50:29.792Z,-3.80
2024-01-09T22:52:58.323Z,-3.83
2024-01-09T22:55:25.947Z,-3.82
2024-01-09T22:57:54.929Z,-3.81
2024-01-09T23:00:23.645Z,-3.87
2024-01-09T23:02:52.858Z,-3.85
2024-01-09T23:05:20.755Z,-3.85
2024-01-09T23:07:49.952Z,-3.81
2024-01-09T23:10:17.733Z,-3.82
2024-01-09T23:12:46.361Z,-3.90
2024-01-09T23:15:13.993Z,-3.87
2024-01-09T23:17:41.998Z,-3.87
2024-01-09T23:20:10.842Z,-3.86
2024-01-09T23:22:39.193Z,-3.88
2024-01-09T23:25:10.530Z,-3.90
2024-01-09T23:27:38.196Z,-3.89
2024-01-09T23:30:06.701Z,-3.88
2024-01-09T23:32:34.486Z,-3.86
2024-01-09T23:35:02.922Z,-3.89
2024-01-09T23:37:32.259Z,-3.84
2024-01-09T23:40:00.243Z,-3.93
2024-01-09T23:42:29.323Z,-4.02
2024-01-09T23:44:57.522Z,-3.99
2024-01-09T23:47:25.205Z,-3.94
2024-01-09T23:49:53.045Z,-3.93
2024-01-09T23:52:20.732Z,-3.92
2024-01-09T23:54:48.916Z,-3.95
2024-01-09T23:57:16.523Z,-4.00
2024-01-09T23:59:45.470Z,-4.09
